Merigold, Mississippi
Current Conditions -  °F | °C
As of 10:55 AM on Monday 22 Dec 2014 (Local Time) from KRNV Reporting Station
Overcast Overcast  
Wind Chill: 55°   Ceiling: 500
Heat Index: 55°   Visibility: 7mi
Dew Point: 55°   Wind: 14mph
Humidity: 98%   Direction: 170°S
Pressure: 29.77"   Gusts: NA
Location:  33.84°N, 90.73°W
Report Text: KRNV 221655Z AUTO 17012KT 7SM OVC005 13/13 A2977 RMK AO2 T01300127
Loading
Personal Weather Stations






























Interactive Weather Map New forecast layout! Learn more

10-Day Weather Forecast

Advertisements
Track Severe Weather on mobile